Time;durP1;ratioP1;P1;durP2;ratioP2;P2;SDS_P1;SDS_P2;PMS_P1;PMS_P2;Temp;Humidity;BMP_temperature;BMP_pressure;BME280_temperature;BME280_humidity;BME280_pressure;Samples;Min_cycle;Max_cycle;Signal;HPM_P1;HPM_P2
2021/06/23 06:05:14;;;;;;;;;22.33;19.33;;;;;;;;6105837;22;45936;-86
2021/06/23 06:10:48;;;;;;;;;24.25;21.50;;;;;;;;5018403;28;47070;-92
2021/06/23 06:13:14;;;;;;;;;25.50;21.75;;;;;;;;5016283;28;47128;-87
2021/06/23 06:15:39;;;;;;;;;24.00;19.75;;;;;;;;5018443;28;47012;-88
2021/06/23 06:18:05;;;;;;;;;25.75;23.00;;;;;;;;5017852;28;46870;-89
2021/06/23 06:20:32;;;;;;;;;26.00;23.75;;;;;;;;5018179;28;46958;-81
2021/06/23 06:22:57;;;;;;;;;26.25;23.25;;;;;;;;5017150;28;46806;-84
2021/06/23 06:25:25;;;;;;;;;25.75;24.75;;;;;;;;5017832;28;48002;-83
2021/06/23 06:27:51;;;;;;;;;26.75;23.25;;;;;;;;5017443;28;46818;-83
2021/06/23 06:30:16;;;;;;;;;35.75;26.25;;;;;;;;5020525;28;46759;-84
2021/06/23 06:32:42;;;;;;;;;26.75;24.75;;;;;;;;5021060;28;46998;-83
2021/06/23 06:35:07;;;;;;;;;29.50;23.75;;;;;;;;5020890;28;46983;-84
2021/06/23 06:37:33;;;;;;;;;27.75;26.00;;;;;;;;5020593;28;47029;-83
2021/06/23 06:39:58;;;;;;;;;28.50;24.50;;;;;;;;5021202;28;46970;-84
2021/06/23 06:42:24;;;;;;;;;32.75;26.25;;;;;;;;5020985;28;47089;-83
2021/06/23 06:44:49;;;;;;;;;32.25;26.75;;;;;;;;5002977;28;47418;-84
2021/06/23 06:47:14;;;;;;;;;26.75;23.00;;;;;;;;5009029;28;46893;-84
2021/06/23 06:49:39;;;;;;;;;36.50;24.25;;;;;;;;5021207;28;47171;-84
2021/06/23 06:52:05;;;;;;;;;29.00;24.25;;;;;;;;5021012;28;46995;-84
2021/06/23 06:54:30;;;;;;;;;29.25;24.25;;;;;;;;5020920;28;46913;-84
2021/06/23 06:56:56;;;;;;;;;26.50;23.00;;;;;;;;5020611;28;47017;-87
2021/06/23 06:59:22;;;;;;;;;34.50;27.50;;;;;;;;5003158;28;47112;-88
2021/06/23 07:01:48;;;;;;;;;32.00;26.00;;;;;;;;5020518;28;47235;-85
2021/06/23 07:04:15;;;;;;;;;28.25;24.25;;;;;;;;5021211;28;47103;-86
2021/06/23 07:06:40;;;;;;;;;29.25;27.25;;;;;;;;5017946;28;47340;-87
2021/06/23 07:09:06;;;;;;;;;28.25;24.25;;;;;;;;5020625;28;46889;-87
2021/06/23 07:11:31;;;;;;;;;29.50;25.00;;;;;;;;5020724;28;47036;-87
2021/06/23 07:13:56;;;;;;;;;28.50;26.50;;;;;;;;5020755;28;47164;-87
2021/06/23 07:16:22;;;;;;;;;23.75;21.00;;;;;;;;5018420;28;47414;-86
2021/06/23 07:18:48;;;;;;;;;27.25;24.50;;;;;;;;5019928;28;47172;-87
2021/06/23 07:21:18;;;;;;;;;26.25;22.75;;;;;;;;5018508;28;46837;-88
2021/06/23 07:23:43;;;;;;;;;25.00;23.50;;;;;;;;5019984;28;47973;-86
2021/06/23 07:26:08;;;;;;;;;24.25;23.25;;;;;;;;5019826;28;46861;-86
2021/06/23 07:29:07;;;;;;;;;25.50;23.75;;;;;;;;5020149;28;46890;-86
2021/06/23 07:31:32;;;;;;;;;22.25;21.25;;;;;;;;5010490;28;47103;-86
2021/06/23 07:34:34;;;;;;;;;29.00;24.25;;;;;;;;5018796;28;48540;-86
2021/06/23 07:37:25;;;;;;;;;26.25;22.75;;;;;;;;5019799;28;47241;-86
2021/06/23 07:39:32;;;;;;;;;28.50;25.00;;;;;;;;5011745;28;47047;-86
2021/06/23 07:41:58;;;;;;;;;33.75;30.00;;;;;;;;5015512;28;47077;-86
2021/06/23 07:44:30;;;;;;;;;28.50;26.75;;;;;;;;5019901;28;47950;-86
2021/06/23 07:46:58;;;;;;;;;29.25;27.00;;;;;;;;5021973;28;47218;-86
2021/06/23 07:49:25;;;;;;;;;35.50;27.25;;;;;;;;5014978;28;46941;-87
2021/06/23 07:54:44;;;;;;;;;30.50;28.75;;;;;;;;5015159;28;47099;-87
2021/06/23 08:10:36;;;;;;;;;34.50;29.50;;;;;;;;5019686;28;47282;-86
2021/06/23 08:13:02;;;;;;;;;33.75;25.75;;;;;;;;5016056;28;47173;-87
2021/06/23 08:15:29;;;;;;;;;30.50;29.00;;;;;;;;5017554;28;47994;-87
2021/06/23 08:17:54;;;;;;;;;35.25;32.75;;;;;;;;5018606;28;46985;-85
2021/06/23 08:20:20;;;;;;;;;32.25;25.50;;;;;;;;5019632;28;46944;-86
2021/06/23 08:22:45;;;;;;;;;36.50;28.25;;;;;;;;5019334;28;46933;-86
2021/06/23 08:25:11;;;;;;;;;31.00;28.25;;;;;;;;5019106;28;47723;-87
2021/06/23 08:27:36;;;;;;;;;32.50;29.75;;;;;;;;5019069;28;46925;-87
2021/06/23 08:30:02;;;;;;;;;29.50;27.25;;;;;;;;5001364;28;47075;-86
2021/06/23 08:32:28;;;;;;;;;31.25;28.25;;;;;;;;5018810;28;46846;-86
2021/06/23 08:34:53;;;;;;;;;31.75;27.25;;;;;;;;5019308;28;46968;-86
2021/06/23 08:37:19;;;;;;;;;28.25;26.00;;;;;;;;5001269;28;46772;-86
2021/06/23 08:39:44;;;;;;;;;28.50;22.25;;;;;;;;5018620;28;46921;-86
2021/06/23 08:42:09;;;;;;;;;33.25;30.50;;;;;;;;5016872;28;47278;-86
2021/06/23 08:44:35;;;;;;;;;33.75;30.25;;;;;;;;5001670;28;48402;-86
2021/06/23 08:47:01;;;;;;;;;33.00;30.25;;;;;;;;5018663;28;46988;-86
2021/06/23 08:49:28;;;;;;;;;34.50;30.25;;;;;;;;5001269;28;46940;-86
2021/06/23 08:51:55;;;;;;;;;28.00;24.50;;;;;;;;5018253;28;47084;-86
2021/06/23 08:54:20;;;;;;;;;25.25;23.50;;;;;;;;5019196;28;46972;-86
2021/06/23 08:56:46;;;;;;;;;31.00;28.75;;;;;;;;5019164;28;47030;-87
2021/06/23 08:59:11;;;;;;;;;32.25;28.50;;;;;;;;5017949;28;47018;-85
2021/06/23 09:01:37;;;;;;;;;34.50;28.25;;;;;;;;5019114;28;47048;-86
2021/06/23 09:04:03;;;;;;;;;33.50;29.50;;;;;;;;5018647;28;46956;-86
2021/06/23 09:06:41;;;;;;;;;38.25;30.00;;;;;;;;5013093;28;47111;-87
2021/06/23 09:09:25;;;;;;;;;32.00;30.50;;;;;;;;5012719;28;46839;-86
2021/06/23 09:11:54;;;;;;;;;30.00;27.00;;;;;;;;5009054;28;47016;-84
2021/06/23 09:14:20;;;;;;;;;29.75;26.00;;;;;;;;5011016;28;46935;-84
2021/06/23 09:17:05;;;;;;;;;30.25;28.75;;;;;;;;5018202;28;47089;-83
2021/06/23 09:19:32;;;;;;;;;37.50;29.00;;;;;;;;5018954;28;47036;-84
2021/06/23 09:21:57;;;;;;;;;33.00;29.25;;;;;;;;5019024;28;46791;-84
2021/06/23 09:24:43;;;;;;;;;25.25;25.25;;;;;;;;5018436;28;47064;-84
2021/06/23 09:27:19;;;;;;;;;22.50;20.25;;;;;;;;5009380;28;47224;-83
2021/06/23 09:29:45;;;;;;;;;29.50;23.50;;;;;;;;5018479;28;46975;-84
2021/06/23 09:32:10;;;;;;;;;33.00;24.75;;;;;;;;5018358;28;47086;-84
2021/06/23 09:34:41;;;;;;;;;30.25;28.25;;;;;;;;5013591;28;46966;-85
2021/06/23 09:37:26;;;;;;;;;30.25;25.50;;;;;;;;5016444;28;47162;-83
2021/06/23 09:40:11;;;;;;;;;31.75;28.75;;;;;;;;5018435;28;47111;-84
2021/06/23 09:42:37;;;;;;;;;31.25;29.75;;;;;;;;5011110;28;47390;-82
2021/06/23 09:45:04;;;;;;;;;32.00;30.75;;;;;;;;5015107;28;47910;-84
2021/06/23 11:45:18;;;;;;;;;33.50;28.50;;;;;;;;5319022;22;47249;-86
2021/06/23 13:20:50;;;;;;;;;;;;;;;;;;;;;
2021/06/23 13:23:19;;;;;;;;;25.75;23.00;;;;;;;;4933824;28;67942;-85
2021/06/23 13:25:53;;;;;;;;;28.00;26.25;;;;;;;;4955070;28;47191;-87
2021/06/23 13:34:56;;;;;;;;;23.75;22.50;;;;;;;;4985154;28;47622;-85
2021/06/23 13:37:26;;;;;;;;;25.75;23.00;;;;;;;;4998677;28;47021;-85
2021/06/23 13:40:10;;;;;;;;;25.25;22.25;;;;;;;;4998955;28;47036;-84
2021/06/23 13:46:11;;;;;;;;;;;;;;;;;;;;;
2021/06/23 13:49:07;;;;;;;;;;;;;;;;;;;;;
2021/06/23 13:52:03;;;;;;;;;;;;;;;;;;;;;
2021/06/23 13:54:34;;;;;;;;;27.00;23.25;;;;;;;;5000505;28;71581;-86
2021/06/23 13:57:30;;;;;;;;;;;;;;;;;;;;;
2021/06/23 14:03:10;;;;;;;;;27.00;26.00;;;;;;;;4996109;28;46966;-89
2021/06/23 14:06:13;;;;;;;;;28.50;26.50;;;;;;;;5001178;28;47069;-84
2021/06/23 14:09:05;;;;;;;;;27.75;25.75;;;;;;;;4996479;28;47274;-86
2021/06/23 14:11:30;;;;;;;;;26.00;23.00;;;;;;;;5005342;28;47312;-83
2021/06/23 14:14:19;;;;;;;;;;;;;;;;;;;;;
2021/06/23 14:17:28;;;;;;;;;;;;;;;;;;;;;
2021/06/23 14:25:59;;;;;;;;;26.50;23.25;;;;;;;;5005338;28;46988;-84
2021/06/23 14:28:25;;;;;;;;;21.00;19.75;;;;;;;;4980933;28;47014;-84
2021/06/23 14:30:53;;;;;;;;;24.75;23.25;;;;;;;;4998367;28;46871;-84
2021/06/23 14:33:21;;;;;;;;;27.25;25.50;;;;;;;;4997880;28;46997;-86
2021/06/23 14:39:20;;;;;;;;;;;;;;;;;;;;;
2021/06/23 14:44:47;;;;;;;;;;;;;;;;;;;;;
2021/06/23 14:50:32;;;;;;;;;30.00;28.25;;;;;;;;5003699;28;47192;-83
2021/06/23 14:53:07;;;;;;;;;;;;;;;;;;;;;
2021/06/23 14:55:58;;;;;;;;;29.50;26.75;;;;;;;;5001025;28;77004;-84
2021/06/23 14:58:34;;;;;;;;;24.25;24.25;;;;;;;;4986355;28;47884;-84
2021/06/23 15:00:59;;;;;;;;;29.00;25.75;;;;;;;;5001167;28;46921;-82
2021/06/23 15:03:32;;;;;;;;;33.50;28.00;;;;;;;;5000812;28;46866;-84
2021/06/23 15:08:51;;;;;;;;;31.00;27.75;;;;;;;;4998038;28;46732;-85
2021/06/23 15:11:31;;;;;;;;;27.00;26.00;;;;;;;;5009954;28;46940;-84
2021/06/23 15:15:11;;;;;;;;;;;;;;;;;;;;;
2021/06/23 15:20:44;;;;;;;;;;;;;;;;;;;;;
2021/06/23 15:29:49;;;;;;;;;35.50;30.50;;;;;;;;4934011;28;47798;-84
2021/06/23 15:32:16;;;;;;;;;35.00;30.50;;;;;;;;4932707;28;47105;-84
2021/06/23 15:38:09;;;;;;;;;;;;;;;;;;;;;
2021/06/23 15:41:11;;;;;;;;;34.50;28.25;;;;;;;;4992104;28;75661;-84
2021/06/23 15:43:45;;;;;;;;;37.25;32.00;;;;;;;;4967157;28;46962;-84
2021/06/23 15:49:55;;;;;;;;;31.50;29.50;;;;;;;;4970537;28;47431;-85
2021/06/23 15:55:25;;;;;;;;;36.25;31.25;;;;;;;;4959368;28;47122;-86
2021/06/23 15:58:13;;;;;;;;;28.00;27.00;;;;;;;;4963167;28;46970;-84
2021/06/23 16:00:38;;;;;;;;;32.50;31.25;;;;;;;;4958575;28;47278;-83
2021/06/23 16:03:04;;;;;;;;;33.25;29.00;;;;;;;;4989233;28;47187;-84
2021/06/23 16:05:31;;;;;;;;;29.50;28.75;;;;;;;;4984482;28;46978;-85
2021/06/23 16:07:57;;;;;;;;;37.50;31.00;;;;;;;;4989414;28;46974;-84
2021/06/23 16:10:24;;;;;;;;;31.75;27.50;;;;;;;;4982612;28;48226;-84
2021/06/23 16:13:12;;;;;;;;;35.00;30.00;;;;;;;;4999853;28;47919;-86
2021/06/23 16:16:07;;;;;;;;;35.25;32.00;;;;;;;;4974004;28;47184;-85
2021/06/23 16:21:29;;;;;;;;;37.50;33.50;;;;;;;;4969660;28;47309;-84
2021/06/23 16:30:39;;;;;;;;;;;;;;;;;;;;;
2021/06/23 16:33:56;;;;;;;;;;;;;;;;;;;;;
2021/06/23 16:37:02;;;;;;;;;;;;;;;;;;;;;
2021/06/23 16:43:01;;;;;;;;;34.25;29.75;;;;;;;;4949812;28;47112;-84
2021/06/23 17:04:26;;;;;;;;;28.50;28.00;;;;;;;;4951449;28;47272;-91
2021/06/23 17:17:16;;;;;;;;;29.75;28.50;;;;;;;;4842917;29;47577;-88
2021/06/23 19:22:17;;;;;;;;;39.50;33.00;;;;;;;;4882447;29;47225;-87
2021/06/23 19:25:31;;;;;;;;;39.00;34.00;;;;;;;;4882924;29;47155;-87
2021/06/23 19:31:04;;;;;;;;;37.00;33.00;;;;;;;;4957738;28;47358;-87
2021/06/23 19:36:35;;;;;;;;;37.75;32.75;;;;;;;;4907386;28;46871;-85
2021/06/23 21:30:22;;;;;;;;;;;;;;;;;;;;;
2021/06/23 21:42:18;;;;;;;;;27.25;24.50;;;;;;;;4791374;29;47339;-86
2021/06/23 23:16:33;;;;;;;;;16.25;14.25;;;;;;;;4920565;28;47041;-88
